createdAt,value
2022-11-26T00:00:06.225Z,7.12
2022-11-26T00:02:55.061Z,7.07
2022-11-26T00:11:37.778Z,7.07
2022-11-26T00:17:17.091Z,7.47
2022-11-26T00:20:07.111Z,7.27
2022-11-26T00:22:58.545Z,7.11
2022-11-26T00:28:39.817Z,7.35
2022-11-26T00:34:15.219Z,7.39
2022-11-26T00:39:47.050Z,7.48
2022-11-26T00:45:20.388Z,7.48
2022-11-26T00:48:08.794Z,7.52
2022-11-26T00:53:39.453Z,7.43
2022-11-26T00:59:17.512Z,7.50
2022-11-26T01:02:05.647Z,7.39
2022-11-26T01:04:53.849Z,7.47
2022-11-26T01:07:43.488Z,7.51
2022-11-26T01:13:17.180Z,7.52
2022-11-26T01:19:36.687Z,7.46
2022-11-26T01:22:25.527Z,7.48
2022-11-26T01:25:13.654Z,7.55
2022-11-26T01:28:02.258Z,7.46
2022-11-26T01:30:54.008Z,7.46
2022-11-26T01:39:16.121Z,7.42
2022-11-26T01:44:50.416Z,7.28
2022-11-26T01:47:38.895Z,7.31
2022-11-26T01:53:49.100Z,7.14
2022-11-26T01:56:40.538Z,6.85
2022-11-26T02:02:18.695Z,6.85
2022-11-26T02:05:10.669Z,6.92
2022-11-26T02:10:46.299Z,6.88
2022-11-26T02:16:59.136Z,6.91
2022-11-26T02:20:32.742Z,6.97
2022-11-26T02:23:51.137Z,7.04
2022-11-26T02:30:07.111Z,7.15
2022-11-26T02:38:36.978Z,6.70
2022-11-26T02:44:12.737Z,6.92
2022-11-26T02:49:45.228Z,6.93
2022-11-26T02:55:27.877Z,6.94
2022-11-26T02:58:16.382Z,7.07
2022-11-26T03:03:54.051Z,7.01
2022-11-26T03:06:42.781Z,7.14
2022-11-26T03:12:25.398Z,7.21
2022-11-26T03:18:01.490Z,7.14
2022-11-26T03:23:36.965Z,7.17
2022-11-26T03:29:06.823Z,7.13
2022-11-26T03:31:54.753Z,7.10
2022-11-26T03:34:43.956Z,7.25
2022-11-26T03:37:32.095Z,7.11
2022-11-26T03:40:20.799Z,7.19
2022-11-26T03:43:10.024Z,7.17
2022-11-26T03:49:00.511Z,7.10
2022-11-26T03:54:29.991Z,7.12
2022-11-26T04:00:09.210Z,7.19
2022-11-26T04:05:45.261Z,7.19
2022-11-26T04:11:19.659Z,7.15
2022-11-26T04:14:07.968Z,7.09
2022-11-26T04:16:57.403Z,7.08
2022-11-26T04:22:33.352Z,7.00
2022-11-26T04:25:23.185Z,6.89
2022-11-26T04:30:56.971Z,6.90
2022-11-26T04:33:45.935Z,6.84
2022-11-26T04:36:34.497Z,6.66
2022-11-26T04:42:11.949Z,6.74
2022-11-26T04:48:04.944Z,6.70
2022-11-26T04:53:46.510Z,6.62
2022-11-26T04:59:18.317Z,6.52
2022-11-26T05:02:06.447Z,6.43
2022-11-26T05:07:42.440Z,6.40
2022-11-26T05:13:13.628Z,6.24
2022-11-26T05:16:02.819Z,6.17
2022-11-26T05:18:51.588Z,6.11
2022-11-26T05:21:41.128Z,6.10
2022-11-26T05:27:20.013Z,6.04
2022-11-26T05:32:59.514Z,5.98
2022-11-26T05:35:48.611Z,6.09
2022-11-26T05:38:36.835Z,6.02
2022-11-26T05:46:44.426Z,5.91
2022-11-26T05:52:15.038Z,5.80
2022-11-26T05:57:53.662Z,5.78
2022-11-26T06:03:29.262Z,5.71
2022-11-26T06:06:20.151Z,5.61
2022-11-26T06:09:08.853Z,5.46
2022-11-26T06:14:47.028Z,5.68
2022-11-26T06:20:21.243Z,5.47
2022-11-26T06:25:56.373Z,5.66
2022-11-26T06:31:34.906Z,5.75
2022-11-26T06:34:24.959Z,5.76
2022-11-26T06:37:13.424Z,5.87
2022-11-26T06:42:44.979Z,5.81
2022-11-26T06:45:33.114Z,5.78
2022-11-26T06:48:25.222Z,5.80
2022-11-26T06:53:58.129Z,5.91
2022-11-26T06:59:32.204Z,5.88
2022-11-26T07:05:00.573Z,5.79
2022-11-26T07:07:48.989Z,5.75
2022-11-26T07:10:38.135Z,5.65
2022-11-26T07:16:08.557Z,6.11
2022-11-26T07:19:02.739Z,6.06
2022-11-26T07:21:48.110Z,6.13
2022-11-26T07:24:36.784Z,6.29
2022-11-26T07:30:13.375Z,6.55
2022-11-26T07:33:01.420Z,6.55
2022-11-26T07:35:49.660Z,6.50
2022-11-26T07:38:37.801Z,6.53
2022-11-26T07:41:26.552Z,6.61
2022-11-26T07:47:05.884Z,6.83
2022-11-26T07:49:54.180Z,6.86
2022-11-26T07:55:28.966Z,7.00
2022-11-26T07:58:18.678Z,6.91
2022-11-26T08:01:13.299Z,7.05
2022-11-26T08:06:46.179Z,7.23
2022-11-26T08:12:14.469Z,6.96
2022-11-26T08:15:02.945Z,6.92
2022-11-26T08:20:39.435Z,7.19
2022-11-26T08:29:00.147Z,7.28
2022-11-26T08:34:38.446Z,7.55
2022-11-26T08:40:19.426Z,7.70
2022-11-26T08:46:13.066Z,8.07
2022-11-26T08:49:07.722Z,8.03
2022-11-26T08:54:45.125Z,8.48
2022-11-26T09:00:23.032Z,9.02
2022-11-26T09:03:12.009Z,9.22
2022-11-26T09:09:07.122Z,9.51
2022-11-26T09:11:58.334Z,9.59
2022-11-26T09:17:47.219Z,9.82
2022-11-26T09:20:35.381Z,9.79
2022-11-26T09:23:24.496Z,9.67
2022-11-26T09:29:00.985Z,9.77
2022-11-26T09:34:39.328Z,10.46
2022-11-26T09:40:19.504Z,10.86
2022-11-26T09:43:10.888Z,10.79
2022-11-26T09:46:01.975Z,10.62
2022-11-26T09:51:37.167Z,10.38
2022-11-26T09:57:20.836Z,10.58
2022-11-26T10:02:54.451Z,10.75
2022-11-26T10:08:57.712Z,10.74
2022-11-26T10:14:40.777Z,10.20
2022-11-26T10:23:57.740Z,9.78
2022-11-26T10:29:30.144Z,9.69
2022-11-26T10:35:04.445Z,9.46
2022-11-26T10:40:39.830Z,9.42
2022-11-26T10:46:09.875Z,9.68
2022-11-26T10:52:07.947Z,9.96
2022-11-26T10:58:06.811Z,10.28
2022-11-26T11:01:00.153Z,10.32
2022-11-26T11:06:41.655Z,10.13
2022-11-26T11:09:34.038Z,9.89
2022-11-26T11:15:25.820Z,9.78
2022-11-26T11:21:09.926Z,9.24
2022-11-26T11:24:10.762Z,9.10
2022-11-26T11:27:01.002Z,8.89
2022-11-26T11:35:31.156Z,8.71
2022-11-26T11:41:14.506Z,8.72
2022-11-26T11:47:09.850Z,8.76
2022-11-26T11:53:09.087Z,8.82
2022-11-26T12:02:05.491Z,9.16
2022-11-26T12:07:53.481Z,9.49
2022-11-26T12:13:25.755Z,9.64
2022-11-26T12:16:18.676Z,9.56
2022-11-26T12:22:15.729Z,10.05
2022-11-26T12:27:53.694Z,10.28
2022-11-26T12:33:28.452Z,10.10
2022-11-26T12:39:29.301Z,10.14
2022-11-26T12:45:17.426Z,9.89
2022-11-26T12:50:55.898Z,10.00
2022-11-26T12:53:47.871Z,9.72
2022-11-26T12:56:40.259Z,9.65
2022-11-26T13:02:16.938Z,9.53
2022-11-26T13:08:23.597Z,9.61
2022-11-26T13:14:15.432Z,9.33
2022-11-26T13:20:10.916Z,9.32
2022-11-26T13:26:05.021Z,9.50
2022-11-26T13:29:04.012Z,9.47
2022-11-26T13:32:12.922Z,9.73
2022-11-26T13:38:05.998Z,9.84
2022-11-26T13:43:53.192Z,9.71
2022-11-26T13:46:42.994Z,9.50
2022-11-26T13:52:16.324Z,9.65
2022-11-26T13:57:57.212Z,9.63
2022-11-26T14:00:45.562Z,9.40
2022-11-26T14:03:49.174Z,9.38
2022-11-26T14:09:49.847Z,9.28
2022-11-26T14:16:00.334Z,9.37
2022-11-26T14:19:03.082Z,9.36
2022-11-26T14:22:03.277Z,9.35
2022-11-26T14:30:51.746Z,9.01
2022-11-26T14:33:43.868Z,9.10
2022-11-26T14:39:15.206Z,9.02
2022-11-26T14:44:51.716Z,8.85
2022-11-26T14:50:27.825Z,8.78
2022-11-26T14:56:05.540Z,8.69
2022-11-26T15:01:37.564Z,8.61
2022-11-26T15:04:27.402Z,8.57
2022-11-26T15:07:25.839Z,8.32
2022-11-26T15:13:11.479Z,8.30
2022-11-26T15:16:01.573Z,8.37
2022-11-26T15:21:36.819Z,8.21
2022-11-26T15:24:24.610Z,7.87
2022-11-26T15:27:30.348Z,7.95
2022-11-26T15:30:23.410Z,7.87
2022-11-26T15:36:00.790Z,7.80
2022-11-26T15:41:51.002Z,7.65
2022-11-26T15:44:42.904Z,7.45
2022-11-26T15:50:21.384Z,7.49
2022-11-26T15:55:55.445Z,7.31
2022-11-26T16:01:25.875Z,7.18
2022-11-26T16:07:30.153Z,7.02
2022-11-26T16:13:21.438Z,7.08
2022-11-26T16:18:58.720Z,6.89
2022-11-26T16:21:57.928Z,6.84
2022-11-26T16:27:35.076Z,6.84
2022-11-26T16:33:13.954Z,6.75
2022-11-26T16:38:45.291Z,6.69
2022-11-26T16:44:21.243Z,6.63
2022-11-26T16:47:15.077Z,6.45
2022-11-26T16:50:03.807Z,6.55
2022-11-26T16:55:36.186Z,6.44
2022-11-26T17:04:03.292Z,6.44
2022-11-26T17:06:52.605Z,6.43
2022-11-26T17:12:29.053Z,6.49
2022-11-26T17:18:08.498Z,6.44
2022-11-26T17:20:56.942Z,6.28
2022-11-26T17:23:46.328Z,6.22
2022-11-26T17:29:22.459Z,6.32
2022-11-26T17:32:13.719Z,6.16
2022-11-26T17:37:40.524Z,6.17
2022-11-26T17:43:16.876Z,6.16
2022-11-26T17:48:59.589Z,6.07
2022-11-26T17:51:44.900Z,6.10
2022-11-26T17:54:33.785Z,6.09
2022-11-26T18:00:13.667Z,6.04
2022-11-26T18:06:00.489Z,6.08
2022-11-26T18:11:49.965Z,6.09
2022-11-26T18:14:43.577Z,5.96
2022-11-26T18:20:19.884Z,5.93
2022-11-26T18:28:34.744Z,5.95
2022-11-26T18:34:04.575Z,5.90
2022-11-26T18:36:54.015Z,5.81
2022-11-26T18:42:40.807Z,5.83
2022-11-26T18:48:07.473Z,5.84
2022-11-26T18:53:47.510Z,6.05
2022-11-26T18:59:22.916Z,5.75
2022-11-26T19:05:12.028Z,5.76
2022-11-26T19:10:51.189Z,5.54
2022-11-26T19:13:42.777Z,5.45
2022-11-26T19:19:10.768Z,5.54
2022-11-26T19:24:47.718Z,5.62
2022-11-26T19:27:38.436Z,5.53
2022-11-26T19:33:13.004Z,5.70
2022-11-26T19:38:57.988Z,5.75
2022-11-26T19:41:46.556Z,5.80
2022-11-26T19:47:24.154Z,5.82
2022-11-26T19:53:25.618Z,5.73
2022-11-26T19:59:03.121Z,5.58
2022-11-26T20:07:47.272Z,5.64
2022-11-26T20:18:51.983Z,5.39
2022-11-26T20:43:15.486Z,4.98
2022-11-26T20:53:38.831Z,4.88
2022-11-26T21:05:48.041Z,4.99
2022-11-26T21:08:40.276Z,4.83
2022-11-26T21:17:01.946Z,4.76
2022-11-26T21:22:39.812Z,4.79
2022-11-26T21:28:16.853Z,4.84
2022-11-26T21:34:00.723Z,4.72
2022-11-26T21:39:29.410Z,4.85
2022-11-26T21:42:18.172Z,4.86
2022-11-26T21:47:46.248Z,4.57
2022-11-26T21:53:25.511Z,4.60
2022-11-26T21:56:17.378Z,4.32
2022-11-26T21:59:06.396Z,4.48
2022-11-26T22:04:36.296Z,4.44
2022-11-26T22:07:29.972Z,4.56
2022-11-26T22:13:08.708Z,4.10
2022-11-26T22:18:38.391Z,4.20
2022-11-26T22:24:19.003Z,4.07
2022-11-26T22:29:55.739Z,4.32
2022-11-26T22:32:44.113Z,4.26
2022-11-26T22:38:20.108Z,4.17
2022-11-26T22:43:49.952Z,4.11
2022-11-26T22:52:13.908Z,3.81
2022-11-26T22:57:49.688Z,3.79
2022-11-26T23:03:36.571Z,3.84
2022-11-26T23:12:06.709Z,3.87
2022-11-26T23:14:59.726Z,3.85
2022-11-26T23:17:50.640Z,3.91
2022-11-26T23:23:24.026Z,3.98
2022-11-26T23:26:15.374Z,3.91
2022-11-26T23:31:48.231Z,3.89
2022-11-26T23:37:18.352Z,3.73
2022-11-26T23:45:44.478Z,3.86
2022-11-26T23:51:15.279Z,3.73
2022-11-26T23:54:09.806Z,3.67
2022-11-26T23:56:58.489Z,3.65
2022-11-26T23:59:46.481Z,3.57
